Aérodrome :
LOGIN :

S'inscrire | Disclaimer

   EN    FR    IT 

 










Légende :    VFR   VFR Marginal   IFR   IFR Intensif   IFR Très Intensif
Visi : 
Plafond : 
>= 8 km
>= 3000ft
5 à 8 km
1000 à 3000 ft
1500m à 5 km
500 à 1000 ft
800 à 1500m
200 à 500 ft
< 800m
< 200 ft
Symboles :   Orages  Brouillard  Fortes neiges  Fortes précipitations  Vent > 20 kt
SIGMETs :   Divers  Orages  Givrage  Turbulence  Onde Orograph.  Cendres Volcan.







- Altitude de l'aérodrome : 791 ft
- Code IATA : KRK


EPKK - Krakow-Balice

DERNIER METAR :
  • 220200Z 24008KT 4000 -DZ BR FEW004 OVC006 05/04 Q1018

METARs EXPIRÉS :
  • 220130Z 24008KT 4000 -DZ BKN006 OVC008 05/04 Q1018
  • 220100Z 23010KT 7000 -RA BKN009 05/04 Q1019
  • 220030Z 26011KT 5000 -RA BR BKN010 05/04 Q1019
  • 220000Z 25010KT 6000 -RA BKN010 05/04 Q1019
  • 212330Z 26009KT 6000 -RA BKN012 05/04 Q1019

TAF TAF EPKK
Valide du 22 à 00h jusqu'au 23 à 00h UTC


212330Z 2200/2224 25012KT 6000 BKN010 OVC020
TEMPO 2200/2203 2500 -RA BKN006
BECMG 2203/2205 34007KT 2500 -RASN BR
BECMG 2205/2207 06016G28KT 1200 SN BKN004 OVC010
BECMG 2207/2209 4000 -SN BKN007 BKN015
BECMG 2209/2211 CAVOK
BECMG 2215/2217 04012KT
Pas de NOTAMs connus pour ce terrain.



MET'MAP, la Météo Aéronautique d'un coup d'oeil ! - Copyright ORBIFLY Décembre 2007 - Disclaimer

ORBIFLY MET'MAP TEAM :

Programmation & Développement : Alexandra Zaïnal
Conception & Développement : Baudouin d'Aumeries
Co-Programmation & Développement : Marc-Olivier Méhu
Soutien technique & logistique : Manuel Goepfert

Contact : metmap@orbifly.com




SOURCES & CREDITS :

   NOAA